Time;durP1;ratioP1;P1;durP2;ratioP2;P2;SDS_P1;SDS_P2;PMS_P1;PMS_P2;Temp;Humidity;BMP_temperature;BMP_pressure;BME280_temperature;BME280_humidity;BME280_pressure;Samples;Min_cycle;Max_cycle;Signal;HPM_P1;HPM_P2
2022/12/30 00:03:59;;;;;;;0.35;0.00;;;3.50;99.90;;;;;;20185260;29;20492;-62
2022/12/30 00:34:44;;;;;;;15.55;2.03;;;3.60;99.90;;;;;;20183545;29;20074;-62
2022/12/30 00:44:46;;;;;;;5.45;2.70;;;3.90;99.90;;;;;;20191754;29;20053;-62
2022/12/30 01:05:08;;;;;;;205.83;8.93;;;4.00;99.90;;;;;;20199110;29;20045;-64
2022/12/30 01:15:10;;;;;;;224.50;9.40;;;4.10;99.90;;;;;;20180819;29;20483;-64
2022/12/30 01:25:12;;;;;;;24.10;3.03;;;4.00;99.90;;;;;;20175484;29;20364;-62
2022/12/30 01:35:13;;;;;;;3.72;2.42;;;4.00;99.90;;;;;;20178961;29;20053;-63
2022/12/30 01:45:21;;;;;;;205.45;7.78;;;4.10;99.90;;;;;;20178357;29;20049;-63
2022/12/30 01:55:37;;;;;;;3.95;2.15;;;4.20;99.90;;;;;;20193230;29;20579;-63
2022/12/30 02:05:42;;;;;;;65.93;4.82;;;4.20;99.90;;;;;;20176922;29;20520;-63
2022/12/30 02:16:08;;;;;;;8.30;2.70;;;4.30;99.90;;;;;;20194394;29;20406;-63
2022/12/30 02:26:47;;;;;;;8.90;3.58;;;4.40;99.90;;;;;;20172921;29;20048;-63
2022/12/30 02:37:03;;;;;;;9.00;4.50;;;4.40;99.90;;;;;;20174244;29;20117;-63
2022/12/30 02:47:14;;;;;;;3.30;2.25;;;4.40;99.90;;;;;;20158375;29;20049;-63
2022/12/30 02:57:27;;;;;;;437.58;14.73;;;4.40;99.90;;;;;;20189242;29;20340;-62
2022/12/30 03:07:55;;;;;;;95.13;5.53;;;4.30;99.90;;;;;;20186987;29;20037;-62
2022/12/30 03:17:57;;;;;;;357.95;13.02;;;4.30;99.90;;;;;;20171282;29;20049;-62
2022/12/30 03:28:04;;;;;;;68.30;2.40;;;4.30;99.90;;;;;;20166601;29;20044;-63
2022/12/30 03:38:08;;;;;;;127.32;3.35;;;4.10;99.90;;;;;;20186612;29;20049;-63
2022/12/30 03:48:10;;;;;;;114.80;2.92;;;4.00;99.90;;;;;;20186486;29;20068;-63
2022/12/30 03:58:11;;;;;;;0.30;0.10;;;3.80;99.90;;;;;;20184651;29;20097;-62
2022/12/30 04:08:13;;;;;;;0.25;0.00;;;4.10;99.90;;;;;;20168148;29;20053;-63
2022/12/30 04:18:15;;;;;;;1.05;0.20;;;4.40;99.90;;;;;;20183922;29;20404;-62
2022/12/30 04:28:17;;;;;;;1.65;0.30;;;4.50;99.90;;;;;;20180030;29;20096;-62
2022/12/30 04:38:18;;;;;;;0.82;0.20;;;4.30;99.90;;;;;;20183421;29;20129;-62
2022/12/30 04:48:20;;;;;;;1.10;0.50;;;4.30;99.90;;;;;;20166469;29;20045;-63
2022/12/30 04:58:23;;;;;;;4.60;1.75;;;4.40;99.90;;;;;;20182859;29;20495;-62
2022/12/30 05:08:24;;;;;;;1.88;0.80;;;4.30;99.90;;;;;;20165153;29;20376;-62
2022/12/30 05:18:26;;;;;;;1.85;1.27;;;4.40;99.90;;;;;;20182060;29;20551;-62
2022/12/30 05:28:27;;;;;;;27.60;3.47;;;4.20;99.90;;;;;;20184150;29;20097;-62
2022/12/30 05:38:29;;;;;;;2.92;1.65;;;4.20;99.90;;;;;;20195339;29;20049;-62
2022/12/30 05:48:31;;;;;;;2.65;1.35;;;4.20;99.90;;;;;;20147410;29;20048;-62
2022/12/30 05:58:33;;;;;;;4.88;1.35;;;4.50;99.90;;;;;;20193966;29;20407;-62
2022/12/30 06:08:35;;;;;;;2.97;1.50;;;4.60;99.90;;;;;;20193282;29;20049;-63
2022/12/30 06:18:37;;;;;;;3.20;1.23;;;4.80;99.90;;;;;;20161656;29;20049;-63
2022/12/30 06:28:39;;;;;;;3.65;1.50;;;4.70;99.90;;;;;;20191819;29;20052;-62
2022/12/30 06:38:41;;;;;;;2.53;0.98;;;4.70;99.90;;;;;;20190656;29;20097;-62
2022/12/30 06:48:43;;;;;;;2.47;1.35;;;4.70;99.90;;;;;;20173965;29;20467;-63
2022/12/30 06:58:44;;;;;;;2.90;0.90;;;4.90;99.90;;;;;;20189613;29;20558;-63
2022/12/30 07:08:46;;;;;;;2.00;0.60;;;4.80;99.90;;;;;;20189089;29;20041;-63
2022/12/30 07:18:48;;;;;;;1.45;0.80;;;4.60;99.90;;;;;;20187958;29;20049;-63
2022/12/30 07:28:52;;;;;;;53.42;4.07;;;4.50;99.90;;;;;;20187698;29;20048;-62
2022/12/30 07:39:01;;;;;;;2.55;0.90;;;4.50;99.90;;;;;;20186603;29;20053;-64
2022/12/30 07:49:04;;;;;;;;;;;4.30;99.90;;;;;;20186478;29;20067;-65
2022/12/30 07:59:06;;;;;;;;;;;4.60;99.90;;;;;;20153439;29;19918;-62
2022/12/30 08:09:07;;;;;;;1.45;0.50;;;4.90;99.90;;;;;;20184965;29;20335;-63
2022/12/30 08:19:09;;;;;;;1.50;0.93;;;5.00;99.90;;;;;;20167437;29;20060;-63
2022/12/30 08:29:11;;;;;;;1.77;1.00;;;5.20;99.90;;;;;;20167329;29;20113;-63
2022/12/30 08:39:13;;;;;;;1.02;0.70;;;5.20;99.90;;;;;;20183310;29;20041;-63
2022/12/30 08:49:15;;;;;;;1.90;0.73;;;5.40;99.90;;;;;;20166736;29;20064;-63
2022/12/30 08:59:17;;;;;;;308.50;9.60;;;6.10;99.90;;;;;;20182742;29;20075;-63
2022/12/30 09:09:19;;;;;;;81.65;2.67;;;5.90;99.90;;;;;;20179086;29;20044;-64
2022/12/30 09:19:21;;;;;;;74.82;2.70;;;5.60;99.90;;;;;;20197066;29;20491;-64
2022/12/30 09:29:23;;;;;;;306.25;8.57;;;5.20;99.90;;;;;;20195984;29;20037;-63
2022/12/30 09:39:30;;;;;;;497.90;15.20;;;5.00;99.90;;;;;;20195676;29;20053;-64
2022/12/30 09:50:01;;;;;;;184.43;6.30;;;4.80;99.90;;;;;;20195195;29;20049;-64
2022/12/30 10:00:06;;;;;;;37.58;1.38;;;4.40;99.90;;;;;;20192487;29;20037;-63
2022/12/30 10:10:19;;;;;;;151.80;4.38;;;4.20;99.90;;;;;;20190565;29;20097;-63
2022/12/30 10:20:35;;;;;;;340.20;9.15;;;4.30;99.90;;;;;;20192015;29;20380;-64
2022/12/30 10:30:40;;;;;;;39.40;1.85;;;4.70;99.90;;;;;;20191949;29;20487;-64
2022/12/30 10:40:48;;;;;;;12.95;0.52;;;5.60;99.90;;;;;;20191283;29;20041;-64
2022/12/30 10:50:52;;;;;;;39.13;1.25;;;5.50;99.90;;;;;;20173899;29;20057;-64
2022/12/30 11:00:54;;;;;;;99.30;2.47;;;5.30;99.90;;;;;;20172483;29;20097;-63
2022/12/30 11:11:02;;;;;;;155.45;4.60;;;5.30;99.90;;;;;;20188639;29;20495;-63
2022/12/30 11:21:06;;;;;;;158.55;4.18;;;5.50;99.90;;;;;;20171084;29;20116;-64
2022/12/30 11:31:10;;;;;;;119.43;3.45;;;5.70;99.90;;;;;;20163725;29;20479;-63
2022/12/30 12:35:51;;;;;;;98.03;3.60;;;5.50;99.90;;;;;;21292492;23;20045;-47
2022/12/30 12:46:08;;;;;;;167.83;5.53;;;5.70;99.90;;;;;;19160563;29;10000858;-52
2022/12/30 12:56:22;;;;;;;86.32;5.25;;;5.70;99.90;;;;;;19090101;29;10000873;-47
2022/12/30 13:06:37;;;;;;;163.20;7.28;;;5.50;99.90;;;;;;19947154;29;20131;-49
2022/12/30 13:16:46;;;;;;;82.28;4.60;;;5.50;99.90;;;;;;20055084;24;20413;-46
2022/12/30 13:26:48;;;;;;;392.45;11.38;;;5.40;99.90;;;;;;19939407;29;20141;-55
2022/12/30 13:37:08;;;;;;;503.42;16.38;;;5.60;99.90;;;;;;19942149;29;20107;-54
2022/12/30 13:47:41;;;;;;;466.80;15.23;;;5.50;99.90;;;;;;19933036;24;20082;-50
2022/12/30 13:57:45;;;;;;;52.38;2.25;;;5.40;99.90;;;;;;19948740;29;20042;-49
2022/12/30 14:07:48;;;;;;;95.25;4.30;;;5.30;99.90;;;;;;19947686;29;20115;-54
2022/12/30 14:17:51;;;;;;;76.25;3.90;;;5.40;99.90;;;;;;19953667;29;20038;-52
2022/12/30 14:27:58;;;;;;;98.60;4.35;;;5.50;99.90;;;;;;19950328;29;20047;-43
2022/12/30 14:38:32;;;;;;;129.07;3.90;;;5.40;99.90;;;;;;19947697;29;20050;-54
2022/12/30 14:49:15;;;;;;;23.23;3.20;;;5.10;99.90;;;;;;19946061;29;20062;-44
2022/12/30 14:59:20;;;;;;;23.13;3.33;;;5.00;99.90;;;;;;19941349;29;20115;-57
2022/12/30 15:09:26;;;;;;;4.05;1.10;;;4.90;99.90;;;;;;19946996;29;20075;-50
2022/12/30 15:19:27;;;;;;;4.13;1.88;;;5.20;99.90;;;;;;19950144;29;20057;-44
2022/12/30 15:29:32;;;;;;;1.75;1.30;;;5.50;99.90;;;;;;19944315;29;20596;-50
2022/12/30 15:39:49;;;;;;;4.93;1.73;;;5.30;99.90;;;;;;19935272;29;20393;-55
2022/12/30 15:49:59;;;;;;;141.32;7.97;;;5.50;99.90;;;;;;19913109;29;20493;-53
2022/12/30 16:00:18;;;;;;;205.83;9.87;;;5.30;99.90;;;;;;19923990;29;20066;-48
2022/12/30 16:10:27;;;;;;;4.30;3.17;;;4.90;99.90;;;;;;19915942;29;20143;-55
2022/12/30 16:20:52;;;;;;;395.23;16.63;;;5.00;99.90;;;;;;19919011;29;20074;-51
2022/12/30 16:30:53;;;;;;;212.77;8.95;;;5.20;99.90;;;;;;19938342;29;20039;-52
2022/12/30 16:40:55;;;;;;;295.85;10.80;;;5.00;99.90;;;;;;19915370;29;20492;-43
2022/12/30 16:50:57;;;;;;;26.90;5.05;;;4.70;99.90;;;;;;19960350;29;20050;-46
2022/12/30 17:00:58;;;;;;;5.82;3.65;;;4.70;99.90;;;;;;19906858;29;20042;-46
2022/12/30 17:11:07;;;;;;;738.80;24.08;;;4.90;99.90;;;;;;19890133;29;20053;-52
2022/12/30 17:21:10;;;;;;;641.50;23.48;;;4.90;99.90;;;;;;19878512;29;20076;-57
2022/12/30 17:31:22;;;;;;;514.67;21.42;;;4.80;99.90;;;;;;19875989;29;20088;-51
2022/12/30 17:41:25;;;;;;;132.68;11.45;;;4.80;99.90;;;;;;19867263;29;20121;-51
2022/12/30 17:51:27;;;;;;;554.55;23.98;;;4.60;99.90;;;;;;19853973;29;20404;-45
2022/12/30 18:01:30;;;;;;;19.80;7.97;;;4.70;99.90;;;;;;19896931;29;20127;-48
2022/12/30 18:11:31;;;;;;;11.80;7.40;;;4.60;99.90;;;;;;19136357;29;10000963;-43
2022/12/30 18:21:33;;;;;;;464.10;18.52;;;4.70;99.90;;;;;;19993197;29;20037;-57
2022/12/30 18:31:37;;;;;;;301.67;13.98;;;4.70;99.90;;;;;;20111503;29;20042;-44
2022/12/30 18:41:40;;;;;;;127.63;11.45;;;4.60;99.90;;;;;;20056515;29;20110;-52
2022/12/30 18:51:42;;;;;;;833.63;32.85;;;4.60;99.90;;;;;;20050050;29;20395;-45
2022/12/30 19:01:45;;;;;;;431.40;16.30;;;4.50;99.90;;;;;;20108385;29;20094;-56
2022/12/30 19:11:48;;;;;;;652.42;23.17;;;4.60;99.90;;;;;;20064202;29;20423;-56
2022/12/30 19:21:49;;;;;;;73.07;7.63;;;4.70;99.90;;;;;;20047637;29;20050;-49
2022/12/30 19:31:51;;;;;;;343.63;14.27;;;4.70;99.90;;;;;;20106509;29;20491;-50
2022/12/30 19:41:53;;;;;;;137.35;10.57;;;4.70;99.90;;;;;;20061725;29;20053;-46
2022/12/30 19:51:55;;;;;;;88.28;11.48;;;4.80;99.90;;;;;;20048237;29;20090;-53
2022/12/30 20:01:58;;;;;;;273.45;14.80;;;4.70;99.90;;;;;;20064886;29;20089;-45
2022/12/30 20:11:59;;;;;;;98.53;8.95;;;4.70;99.90;;;;;;20057830;29;20444;-50
2022/12/30 20:22:02;;;;;;;426.38;17.13;;;4.70;99.90;;;;;;20062742;29;20045;-55
2022/12/30 20:32:04;;;;;;;87.30;8.40;;;4.60;99.90;;;;;;20017665;29;20099;-50
2022/12/30 20:42:06;;;;;;;42.65;6.40;;;4.60;99.90;;;;;;20071379;29;20586;-50
2022/12/30 20:52:08;;;;;;;29.70;7.90;;;4.50;99.90;;;;;;20063075;29;20050;-52
2022/12/30 21:02:10;;;;;;;9.32;6.05;;;4.40;99.90;;;;;;20077966;29;20101;-50
2022/12/30 21:12:12;;;;;;;9.57;5.90;;;4.30;99.90;;;;;;20053449;29;20396;-50
2022/12/30 21:22:14;;;;;;;11.23;6.55;;;4.30;99.90;;;;;;20059692;29;20054;-47
2022/12/30 21:32:15;;;;;;;10.07;5.90;;;4.50;99.90;;;;;;20084385;29;20049;-58
2022/12/30 22:03:06;;;;;;;11.73;6.70;;;4.60;99.90;;;;;;20113867;29;20280;-53
2022/12/30 22:13:10;;;;;;;10.80;6.05;;;4.60;99.90;;;;;;20042473;29;20045;-55
2022/12/30 22:23:13;;;;;;;12.57;6.57;;;4.50;99.90;;;;;;20062737;29;20041;-48
2022/12/30 22:33:15;;;;;;;12.35;5.25;;;4.20;99.90;;;;;;20109517;29;20086;-52
2022/12/30 22:43:17;;;;;;;6.75;4.18;;;4.20;99.90;;;;;;20071157;29;20118;-57
2022/12/30 22:53:19;;;;;;;5.82;3.10;;;4.20;99.90;;;;;;20061758;29;20037;-52
2022/12/30 23:03:20;;;;;;;6.28;3.25;;;4.10;99.90;;;;;;20109125;29;20045;-55
2022/12/30 23:34:08;;;;;;;8.67;3.70;;;3.30;99.90;;;;;;20107419;29;20046;-55
2022/12/30 23:44:12;;;;;;;6.10;3.33;;;3.10;99.90;;;;;;20106576;29;20106;-51
2022/12/30 23:54:13;;;;;;;8.18;4.07;;;3.10;99.90;;;;;;20099359;29;20052;-47
